Observation data for Seminole on 02/15/2017      Previous  Date  Next       Current Mesonet Observations  Soil Data  Daily Summary Page  Observations in Plain Language
KSM1 150600Z 32007KT 02/M02 A3021 RMK A01 T00151016  RH  081%=      5-min Rain = 0
KSM1 150605Z 32008KT 02/M02 A3021 RMK A01 T00171019  RH  078%=      5-min Rain = 0
KSM1 150610Z 32008KT 02/M02 A3021 RMK A01 T00181021  RH  076%=      5-min Rain = 0
KSM1 150615Z 32008KT 02/M02 A3021 RMK A01 T00181022  RH  075%=      5-min Rain = 0
KSM1 150620Z 32008KT 02/M02 A3021 RMK A01 T00181024  RH  075%=      5-min Rain = 0
KSM1 150625Z 32008KT 02/M03 A3021 RMK A01 T00171025  RH  074%=      5-min Rain = 0
KSM1 150630Z 32008KT 02/M03 A3021 RMK A01 T00171026  RH  074%=      5-min Rain = 0
KSM1 150635Z 32007KT 02/M03 A3021 RMK A01 T00161026  RH  075%=      5-min Rain = 0
KSM1 150640Z 32007KT 01/M03 A3021 RMK A01 T00141025  RH  076%=      5-min Rain = 0
KSM1 150645Z 32007KT 01/M03 A3021 RMK A01 T00121025  RH  077%=      5-min Rain = 0
KSM1 150650Z 31007KT 01/M03 A3021 RMK A01 T00111026  RH  078%=      5-min Rain = 0
KSM1 150655Z 31008KT 01/M03 A3021 RMK A01 T00111026  RH  077%=      5-min Rain = 0
KSM1 150700Z 31008KT 01/M03 A3021 RMK A01 T00101026  RH  078%=      5-min Rain = 0
KSM1 150705Z 31008KT 01/M03 A3021 RMK A01 T00081027  RH  079%=      5-min Rain = 0
KSM1 150710Z 31008KT 01/M03 A3021 RMK A01 T00081027  RH  079%=      5-min Rain = 0
KSM1 150715Z 30007KT 01/M03 A3021 RMK A01 T00081027  RH  078%=      5-min Rain = 0
KSM1 150720Z 30007KT 01/M03 A3021 RMK A01 T00081027  RH  078%=      5-min Rain = 0
KSM1 150725Z 31008KT 01/M03 A3021 RMK A01 T00061028  RH  079%=      5-min Rain = 0
KSM1 150730Z 31008KT 01/M03 A3021 RMK A01 T00061029  RH  079%=      5-min Rain = 0
KSM1 150735Z 31009KT 01/M03 A3021 RMK A01 T00061029  RH  078%=      5-min Rain = 0
KSM1 150740Z 31008KT 01/M03 A3021 RMK A01 T00061029  RH  078%=      5-min Rain = 0
KSM1 150745Z 31008KT 01/M03 A3021 RMK A01 T00061030  RH  078%=      5-min Rain = 0
KSM1 150750Z 31008KT 01/M03 A3021 RMK A01 T00061030  RH  078%=      5-min Rain = 0
KSM1 150755Z 30007KT 01/M03 A3021 RMK A01 T00061030  RH  078%=      5-min Rain = 0
KSM1 150800Z 30008KT 01/M03 A3021 RMK A01 T00071030  RH  077%=      5-min Rain = 0
KSM1 150805Z 30007KT 01/M03 A3021 RMK A01 T00071029  RH  078%=      5-min Rain = 0
KSM1 150810Z 30007KT 01/M03 A3021 RMK A01 T00071029  RH  077%=      5-min Rain = 0
KSM1 150815Z 31007KT 01/M03 A3021 RMK A01 T00061029  RH  078%=      5-min Rain = 0
KSM1 150820Z 30007KT 01/M03 A3021 RMK A01 T00061029  RH  079%=      5-min Rain = 0
KSM1 150825Z 30008KT 01/M03 A3021 RMK A01 T00051029  RH  079%=      5-min Rain = 0
KSM1 150830Z 30008KT 00/M03 A3021 RMK A01 T00041029  RH  080%=      5-min Rain = 0
KSM1 150835Z 31007KT 00/M03 A3021 RMK A01 T00031028  RH  080%=      5-min Rain = 0
KSM1 150840Z 30007KT 00/M03 A3021 RMK A01 T00021028  RH  081%=      5-min Rain = 0
KSM1 150845Z 30007KT 00/M03 A3021 RMK A01 T00011028  RH  081%=      5-min Rain = 0
KSM1 150850Z 30007KT 00/M03 A3021 RMK A01 T00011028  RH  082%=      5-min Rain = 0
KSM1 150855Z 30006KT 00/M03 A3021 RMK A01 T00011028  RH  082%=      5-min Rain = 0
KSM1 150900Z 30008KT 00/03 A3022 RMK A01 T00000-28  RH  082%=      5-min Rain = 0
KSM1 150905Z 30007KT 00/03 A3021 RMK A01 T00-00-28  RH  083%=      5-min Rain = 0
KSM1 150910Z 31007KT M00/M03 A3021 RMK A01 T10011028  RH  083%=      5-min Rain = 0
KSM1 150915Z 31008KT M00/M03 A3021 RMK A01 T10011027  RH  084%=      5-min Rain = 0
KSM1 150920Z 30007KT 00/M03 A3022 RMK A01 T00011026  RH  083%=      5-min Rain = 0
KSM1 150925Z 30007KT 00/M03 A3022 RMK A01 T00021026  RH  082%=      5-min Rain = 0
KSM1 150930Z 30007KT 00/M03 A3022 RMK A01 T00031027  RH  082%=      5-min Rain = 0
KSM1 150935Z 30008KT 00/M03 A3022 RMK A01 T00031026  RH  082%=      5-min Rain = 0
KSM1 150940Z 30007KT 00/M03 A3022 RMK A01 T00031027  RH  082%=      5-min Rain = 0
KSM1 150945Z 30007KT 00/M03 A3022 RMK A01 T00031027  RH  082%=      5-min Rain = 0
KSM1 150950Z 30007KT 00/M03 A3022 RMK A01 T00031027  RH  082%=      5-min Rain = 0
KSM1 150955Z 30007KT 00/M03 A3022 RMK A01 T00021027  RH  082%=      5-min Rain = 0
KSM1 151000Z 30007KT 00/M03 A3022 RMK A01 T00011027  RH  082%=      5-min Rain = 0
KSM1 151005Z 31007KT 00/M03 A3022 RMK A01 T00011027  RH  082%=      5-min Rain = 0
KSM1 151010Z 31008KT 00/M03 A3022 RMK A01 T00021027  RH  082%=      5-min Rain = 0
KSM1 151015Z 31009KT 00/M03 A3022 RMK A01 T00021027  RH  081%=      5-min Rain = 0
KSM1 151020Z 31009KT 00/M03 A3022 RMK A01 T00031028  RH  081%=      5-min Rain = 0
KSM1 151025Z 31009KT 00/M03 A3022 RMK A01 T00021028  RH  081%=      5-min Rain = 0
KSM1 151030Z 31009KT 00/M03 A3022 RMK A01 T00021028  RH  081%=      5-min Rain = 0
KSM1 151035Z 31009KT 00/M03 A3022 RMK A01 T00011029  RH  081%=      5-min Rain = 0
KSM1 151040Z 31008KT 00/M03 A3022 RMK A01 T00011029  RH  081%=      5-min Rain = 0
KSM1 151045Z 31008KT 00/03 A3022 RMK A01 T00000-29  RH  082%=      5-min Rain = 0
KSM1 151050Z 31009KT 00/03 A3022 RMK A01 T00000-29  RH  082%=      5-min Rain = 0
KSM1 151055Z 31009KT 00/03 A3022 RMK A01 T00000-29  RH  082%=      5-min Rain = 0
KSM1 151100Z 31009KT 00/M03 A3022 RMK A01 T00011029  RH  081%=      5-min Rain = 0
KSM1 151105Z 30008KT 00/03 A3022 RMK A01 T00000-29  RH  082%=      5-min Rain = 0
KSM1 151110Z 30008KT 00/03 A3022 RMK A01 T00000-29  RH  082%=      5-min Rain = 0
KSM1 151115Z 31010KT 00/M03 A3022 RMK A01 T00011029  RH  081%=      5-min Rain = 0
KSM1 151120Z 31010KT 00/M03 A3022 RMK A01 T00011029  RH  081%=      5-min Rain = 0
KSM1 151125Z 30009KT 00/03 A3022 RMK A01 T00000-29  RH  082%=      5-min Rain = 0
KSM1 151130Z 31010KT M00/M03 A3022 RMK A01 T10011029  RH  082%=      5-min Rain = 0
KSM1 151135Z 31009KT M00/M03 A3023 RMK A01 T10011028  RH  083%=      5-min Rain = 0
KSM1 151140Z 31010KT M00/M03 A3023 RMK A01 T10021028  RH  083%=      5-min Rain = 0
KSM1 151145Z 31010KT M00/M03 A3023 RMK A01 T10011028  RH  083%=      5-min Rain = 0
KSM1 151150Z 31010KT M00/M03 A3023 RMK A01 T10011028  RH  083%=      5-min Rain = 0
KSM1 151155Z 31010KT 00/03 A3022 RMK A01 T00-00-28  RH  083%=      5-min Rain = 0
KSM1 151200Z 31009KT M00/M03 A3022 RMK A01 T10011028  RH  083%=      5-min Rain = 0
KSM1 151205Z 31009KT M00/M03 A3022 RMK A01 T10011027  RH  083%=      5-min Rain = 0
KSM1 151210Z 31010KT M00/M03 A3022 RMK A01 T10011027  RH  084%=      5-min Rain = 0
KSM1 151215Z 31010KT M00/M03 A3022 RMK A01 T10011027  RH  083%=      5-min Rain = 0
KSM1 151220Z 31011KT M00/M03 A3022 RMK A01 T10011027  RH  083%=      5-min Rain = 0
KSM1 151225Z 31010KT 00/03 A3022 RMK A01 T00-00-27  RH  083%=      5-min Rain = 0
KSM1 151230Z 31010KT M00/M03 A3022 RMK A01 T10011027  RH  084%=      5-min Rain = 0
KSM1 151235Z 31010KT M00/M03 A3022 RMK A01 T10011027  RH  084%=      5-min Rain = 0
KSM1 151240Z 31010KT M00/M03 A3022 RMK A01 T10011027  RH  084%=      5-min Rain = 0
KSM1 151245Z 31010KT M00/M03 A3022 RMK A01 T10011027  RH  084%=      5-min Rain = 0
KSM1 151250Z 31009KT M00/M03 A3022 RMK A01 T10011027  RH  084%=      5-min Rain = 0
KSM1 151255Z 31009KT M00/M03 A3022 RMK A01 T10011027  RH  084%=      5-min Rain = 0
KSM1 151300Z 31009KT M00/M03 A3023 RMK A01 T10011027  RH  084%=      5-min Rain = 0
KSM1 151305Z 31009KT M00/M03 A3023 RMK A01 T10011027  RH  084%=      5-min Rain = 0
KSM1 151310Z 31009KT M00/M03 A3023 RMK A01 T10021027  RH  084%=      5-min Rain = 0
KSM1 151315Z 31009KT M00/M03 A3023 RMK A01 T10021027  RH  084%=      5-min Rain = 0
KSM1 151320Z 31009KT M00/M03 A3023 RMK A01 T10021027  RH  084%=      5-min Rain = 0
KSM1 151325Z 31009KT M00/M03 A3024 RMK A01 T10021028  RH  083%=      5-min Rain = 0
KSM1 151330Z 31009KT M00/M03 A3024 RMK A01 T10021028  RH  083%=      5-min Rain = 0
KSM1 151335Z 31008KT M00/M03 A3024 RMK A01 T10021028  RH  084%=      5-min Rain = 0
KSM1 151340Z 31008KT M00/M03 A3024 RMK A01 T10021028  RH  083%=      5-min Rain = 0
KSM1 151345Z 32008KT M00/M03 A3024 RMK A01 T10011028  RH  083%=      5-min Rain = 0
KSM1 151350Z 31008KT M00/M03 A3024 RMK A01 T10011028  RH  083%=      5-min Rain = 0
KSM1 151355Z 31009KT 00/03 A3025 RMK A01 T00000-28  RH  082%=      5-min Rain = 0
KSM1 151400Z 31008KT 00/M03 A3025 RMK A01 T00011027  RH  082%=      5-min Rain = 0
KSM1 151405Z 31008KT 00/M03 A3025 RMK A01 T00031027  RH  081%=      5-min Rain = 0
KSM1 151410Z 31009KT 01/M03 A3025 RMK A01 T00051026  RH  080%=      5-min Rain = 0
KSM1 151415Z 31009KT 01/M03 A3025 RMK A01 T00071026  RH  079%=      5-min Rain = 0
KSM1 151420Z 32010KT 01/M03 A3025 RMK A01 T00101026  RH  078%=      5-min Rain = 0
KSM1 151425Z 32009KT 01/M03 A3025 RMK A01 T00131026  RH  076%=      5-min Rain = 0
KSM1 151430Z 32010KT 02/M03 A3026 RMK A01 T00161027  RH  074%=      5-min Rain = 0
KSM1 151435Z 32009G15KT 02/M03 A3026 RMK A01 T00181026  RH  073%=      5-min Rain = 0
KSM1 151440Z 33009KT 02/M03 A3026 RMK A01 T00211026  RH  072%=      5-min Rain = 0
KSM1 151445Z 33011KT 02/M03 A3026 RMK A01 T00231027  RH  070%=      5-min Rain = 0
KSM1 151450Z 33011KT 03/M03 A3027 RMK A01 T00251027  RH  069%=      5-min Rain = 0
KSM1 151455Z 33010KT 03/M03 A3027 RMK A01 T00271025  RH  069%=      5-min Rain = 0
KSM1 151500Z 33010KT 03/M03 A3027 RMK A01 T00291025  RH  068%=      5-min Rain = 0
KSM1 151505Z 33011KT 03/M02 A3027 RMK A01 T00311024  RH  068%=      5-min Rain = 0
KSM1 151510Z 33010KT 03/M02 A3027 RMK A01 T00341024  RH  067%=      5-min Rain = 0
KSM1 151515Z 33009KT 04/M02 A3027 RMK A01 T00371023  RH  066%=      5-min Rain = 0.01
KSM1 151520Z 33011KT 04/M02 A3028 RMK A01 T00391024  RH  064%=      5-min Rain = 0
KSM1 151525Z 33010KT 04/M02 A3028 RMK A01 T00411023  RH  064%=      5-min Rain = 0
KSM1 151530Z 33011KT 05/M02 A3028 RMK A01 T00451022  RH  063%=      5-min Rain = 0
KSM1 151535Z 33011KT 05/M02 A3028 RMK A01 T00471022  RH  062%=      5-min Rain = 0
KSM1 151540Z 33010KT 05/M02 A3028 RMK A01 T00501021  RH  061%=      5-min Rain = 0
KSM1 151545Z 33010KT 06/M02 A3028 RMK A01 T00551020  RH  059%=      5-min Rain = 0
KSM1 151550Z 34010KT 06/M02 A3028 RMK A01 T00581020  RH  058%=      5-min Rain = 0
KSM1 151555Z 34009KT 06/M02 A3028 RMK A01 T00621019  RH  057%=      5-min Rain = 0
KSM1 151600Z 33010KT 06/M02 A3028 RMK A01 T00641019  RH  056%=      5-min Rain = 0
KSM1 151605Z 34010KT 07/M02 A3028 RMK A01 T00671020  RH  054%=      5-min Rain = 0
KSM1 151610Z 34010KT 07/M02 A3028 RMK A01 T00691020  RH  054%=      5-min Rain = 0
KSM1 151615Z 34009KT 07/M02 A3028 RMK A01 T00711021  RH  053%=      5-min Rain = 0
KSM1 151620Z 35010KT 07/M02 A3028 RMK A01 T00741023  RH  051%=      5-min Rain = 0
KSM1 151625Z 33009KT 08/M02 A3028 RMK A01 T00771019  RH  051%=      5-min Rain = 0
KSM1 151630Z 35009KT 08/M02 A3029 RMK A01 T00811022  RH  049%=      5-min Rain = 0
KSM1 151635Z 35008KT 08/M02 A3029 RMK A01 T00841021  RH  048%=      5-min Rain = 0
KSM1 151640Z 34007KT 09/M02 A3029 RMK A01 T00871017  RH  048%=      5-min Rain = 0
KSM1 151645Z 35008KT 09/M03 A3028 RMK A01 T00881026  RH  045%=      5-min Rain = 0
KSM1 151650Z 35009KT 09/M03 A3028 RMK A01 T00901029  RH  044%=      5-min Rain = 0
KSM1 151655Z 35009KT 09/M03 A3028 RMK A01 T00941032  RH  041%=      5-min Rain = 0
KSM1 151700Z 00008KT 09/M03 A3029 RMK A01 T00931034  RH  041%=      5-min Rain = 0
KSM1 151705Z 00008KT 09/M03 A3029 RMK A01 T00941033  RH  041%=      5-min Rain = 0
KSM1 151710Z 36009KT 10/M04 A3029 RMK A01 T00971038  RH  039%=      5-min Rain = 0
KSM1 151715Z 36008KT 10/M04 A3029 RMK A01 T00971038  RH  039%=      5-min Rain = 0
KSM1 151720Z 00007KT 10/M04 A3029 RMK A01 T00991037  RH  038%=      5-min Rain = 0
KSM1 151725Z 01009KT 10/M04 A3028 RMK A01 T01001042  RH  037%=      5-min Rain = 0
KSM1 151730Z 36007KT 10/M04 A3028 RMK A01 T01021038  RH  038%=      5-min Rain = 0
KSM1 151735Z 01009KT 10/M04 A3028 RMK A01 T01041041  RH  036%=      5-min Rain = 0
KSM1 151740Z 36010KT 10/M05 A3028 RMK A01 T01041045  RH  035%=      5-min Rain = 0
KSM1 151745Z 35007KT 10/M04 A3028 RMK A01 T01031040  RH  037%=      5-min Rain = 0
KSM1 151750Z 02009KT 10/M05 A3028 RMK A01 T01041046  RH  035%=      5-min Rain = 0
KSM1 151755Z 02009G14KT 11/M04 A3027 RMK A01 T01061040  RH  036%=      5-min Rain = 0
KSM1 151800Z 01010G17KT 11/M04 A3027 RMK A01 T01061041  RH  036%=      5-min Rain = 0
KSM1 151805Z 01009KT 11/M04 A3027 RMK A01 T01081041  RH  035%=      5-min Rain = 0
KSM1 151810Z 02010KT 11/M05 A3027 RMK A01 T01071046  RH  034%=      5-min Rain = 0
KSM1 151815Z 02009KT 11/M04 A3026 RMK A01 T01081043  RH  035%=      5-min Rain = 0
KSM1 151820Z 03010KT 11/M04 A3026 RMK A01 T01101040  RH  035%=      5-min Rain = 0
KSM1 151825Z 02008G13KT 11/M04 A3026 RMK A01 T01101038  RH  036%=      5-min Rain = 0
KSM1 151830Z 02008G14KT 11/M04 A3026 RMK A01 T01091040  RH  035%=      5-min Rain = 0
KSM1 151835Z 01010KT 11/M04 A3025 RMK A01 T01111039  RH  035%=      5-min Rain = 0
KSM1 151840Z 03010G15KT 11/M04 A3025 RMK A01 T01111040  RH  035%=      5-min Rain = 0
KSM1 151845Z 02010KT 11/M04 A3025 RMK A01 T01111040  RH  035%=      5-min Rain = 0
KSM1 151850Z 04009G14KT 11/M04 A3025 RMK A01 T01121037  RH  035%=      5-min Rain = 0
KSM1 151855Z 02008KT 11/M04 A3024 RMK A01 T01111043  RH  034%=      5-min Rain = 0
KSM1 151900Z 00007KT 11/M04 A3024 RMK A01 T01111039  RH  035%=      5-min Rain = 0
KSM1 151905Z 01008G13KT 11/M04 A3024 RMK A01 T01141040  RH  034%=      5-min Rain = 0
KSM1 151910Z 03011KT 12/M04 A3023 RMK A01 T01161042  RH  033%=      5-min Rain = 0
KSM1 151915Z 03010G15KT 12/M04 A3023 RMK A01 T01161043  RH  033%=      5-min Rain = 0
KSM1 151920Z 02006KT 12/M04 A3023 RMK A01 T01171042  RH  033%=      5-min Rain = 0
KSM1 151925Z 02010G17KT 12/M04 A3023 RMK A01 T01171044  RH  032%=      5-min Rain = 0
KSM1 151930Z 03009G15KT 12/M05 A3023 RMK A01 T01171047  RH  032%=      5-min Rain = 0
KSM1 151935Z 02011KT 12/M04 A3022 RMK A01 T01181044  RH  032%=      5-min Rain = 0
KSM1 151940Z 02011G16KT 12/M05 A3022 RMK A01 T01191045  RH  032%=      5-min Rain = 0
KSM1 151945Z 03010KT 12/M05 A3022 RMK A01 T01171047  RH  032%=      5-min Rain = 0
KSM1 151950Z 02006KT 12/M05 A3022 RMK A01 T01151049  RH  032%=      5-min Rain = 0
KSM1 151955Z 02008KT 12/M05 A3021 RMK A01 T01161048  RH  032%=      5-min Rain = 0
KSM1 152000Z 00010KT 12/M04 A3021 RMK A01 T01191044  RH  032%=      5-min Rain = 0
KSM1 152005Z 01008G14KT 12/M04 A3021 RMK A01 T01201044  RH  032%=      5-min Rain = 0
KSM1 152010Z 02009KT 12/M05 A3021 RMK A01 T01201047  RH  031%=      5-min Rain = 0
KSM1 152015Z 00006KT 12/M05 A3021 RMK A01 T01191048  RH  031%=      5-min Rain = 0
KSM1 152020Z 31002KT 12/M05 A302 RMK A01 T01201049  RH  031%=      5-min Rain = 0
KSM1 152025Z 03005G13KT 12/M05 A302 RMK A01 T01231045  RH  031%=      5-min Rain = 0
KSM1 152030Z 01005KT 12/M04 A302 RMK A01 T01241042  RH  031%=      5-min Rain = 0
KSM1 152035Z 05006KT 12/M05 A302 RMK A01 T01241049  RH  030%=      5-min Rain = 0
KSM1 152040Z 01011G16KT 12/M05 A3019 RMK A01 T01241048  RH  030%=      5-min Rain = 0
KSM1 152045Z 02007G12KT 12/M05 A302 RMK A01 T01231048  RH  030%=      5-min Rain = 0
KSM1 152050Z 05006KT 12/M05 A3019 RMK A01 T01241051  RH  030%=      5-min Rain = 0
KSM1 152055Z 02006KT 12/M05 A3019 RMK A01 T01231051  RH  030%=      5-min Rain = 0
KSM1 152100Z 02003G8KT 12/M05 A3019 RMK A01 T01231051  RH  030%=      5-min Rain = 0
KSM1 152105Z 03006G11KT 13/M05 A3019 RMK A01 T01251048  RH  030%=      5-min Rain = 0
KSM1 152110Z 04006G11KT 13/M05 A3019 RMK A01 T01251049  RH  030%=      5-min Rain = 0
KSM1 152115Z 02009KT 13/M05 A3019 RMK A01 T01281047  RH  030%=      5-min Rain = 0
KSM1 152120Z 34007G12KT 13/M05 A3019 RMK A01 T01261050  RH  029%=      5-min Rain = 0
KSM1 152125Z 34007G12KT 13/M05 A3018 RMK A01 T01271050  RH  029%=      5-min Rain = 0
KSM1 152130Z 34005G10KT 13/M05 A3018 RMK A01 T01261052  RH  029%=      5-min Rain = 0
KSM1 152135Z 34005G10KT 13/M05 A3018 RMK A01 T01281053  RH  028%=      5-min Rain = 0
KSM1 152140Z 00004G9KT 13/M06 A3018 RMK A01 T01271056  RH  028%=      5-min Rain = 0
KSM1 152145Z 34004KT 13/M05 A3018 RMK A01 T01291054  RH  028%=      5-min Rain = 0
KSM1 152150Z 35007KT 13/M05 A3018 RMK A01 T01301049  RH  029%=      5-min Rain = 0
KSM1 152155Z 01007G13KT 13/M05 A3018 RMK A01 T01291052  RH  028%=      5-min Rain = 0
KSM1 152200Z 36005G10KT 13/M06 A3018 RMK A01 T01281055  RH  028%=      5-min Rain = 0
KSM1 152205Z 19001KT 13/M06 A3017 RMK A01 T01301055  RH  028%=      5-min Rain = 0
KSM1 152210Z 18001KT 14/M05 A3017 RMK A01 T01351053  RH  027%=      5-min Rain = 0
KSM1 152215Z 36005KT 14/M05 A3017 RMK A01 T01351054  RH  027%=      5-min Rain = 0
KSM1 152220Z 34006KT 13/M05 A3017 RMK A01 T01301054  RH  028%=      5-min Rain = 0
KSM1 152225Z 35005KT 13/M06 A3017 RMK A01 T01291055  RH  028%=      5-min Rain = 0
KSM1 152230Z 01006KT 13/M05 A3017 RMK A01 T01291052  RH  028%=      5-min Rain = 0
KSM1 152235Z 33005KT 13/M05 A3016 RMK A01 T01311049  RH  028%=      5-min Rain = 0
KSM1 152240Z 00006KT 13/M05 A3016 RMK A01 T01321052  RH  028%=      5-min Rain = 0
KSM1 152245Z 36003KT 13/M05 A3016 RMK A01 T01311052  RH  028%=      5-min Rain = 0
KSM1 152250Z 30005KT 13/M05 A3016 RMK A01 T01321052  RH  028%=      5-min Rain = 0
KSM1 152255Z 29006KT 13/M05 A3016 RMK A01 T01331050  RH  028%=      5-min Rain = 0
KSM1 152300Z 27007KT 13/M05 A3016 RMK A01 T01331053  RH  027%=      5-min Rain = 0
KSM1 152305Z 27005KT 13/M05 A3016 RMK A01 T01331053  RH  027%=      5-min Rain = 0
KSM1 152310Z 24005KT 13/M05 A3016 RMK A01 T01331053  RH  027%=      5-min Rain = 0
KSM1 152315Z 25004KT 13/M06 A3015 RMK A01 T01321055  RH  027%=      5-min Rain = 0
KSM1 152320Z 29004KT 13/M05 A3015 RMK A01 T01331053  RH  027%=      5-min Rain = 0
KSM1 152325Z 32004KT 13/M06 A3015 RMK A01 T01311056  RH  027%=      5-min Rain = 0
KSM1 152330Z 26001KT 13/M06 A3015 RMK A01 T01331056  RH  027%=      5-min Rain = 0
KSM1 152335Z 30001KT 14/M06 A3015 RMK A01 T01371056  RH  026%=      5-min Rain = 0
KSM1 152340Z 27001KT 14/M06 A3015 RMK A01 T01391055  RH  026%=      5-min Rain = 0
KSM1 152345Z 23001KT 14/M05 A3015 RMK A01 T01391053  RH  026%=      5-min Rain = 0
KSM1 152350Z 29001KT 14/M06 A3015 RMK A01 T01391056  RH  026%=      5-min Rain = 0
KSM1 152355Z 35004KT 14/M05 A3014 RMK A01 T01351053  RH  027%=      5-min Rain = 0
KSM1 160000Z 30004KT 13/M05 A3014 RMK A01 T01281048  RH  029%=      5-min Rain = 0
KSM1 160005Z 32005KT 13/M05 A3015 RMK A01 T01251048  RH  030%=      5-min Rain = 0
KSM1 160010Z 31004KT 12/M05 A3015 RMK A01 T01231047  RH  031%=      5-min Rain = 0
KSM1 160015Z 31004KT 12/M05 A3014 RMK A01 T01211051  RH  030%=      5-min Rain = 0
KSM1 160020Z 32003KT 12/M05 A3014 RMK A01 T01201050  RH  031%=      5-min Rain = 0
KSM1 160025Z 32002KT 12/M05 A3014 RMK A01 T01181048  RH  031%=      5-min Rain = 0
KSM1 160030Z 32002KT 12/M05 A3014 RMK A01 T01161046  RH  032%=      5-min Rain = 0
KSM1 160035Z 31002KT 11/M05 A3014 RMK A01 T01141047  RH  032%=      5-min Rain = 0
KSM1 160040Z 30001KT 11/M05 A3014 RMK A01 T01121046  RH  033%=      5-min Rain = 0
KSM1 160045Z 30000KT 11/M05 A3014 RMK A01 T01091047  RH  034%=      5-min Rain = 0
KSM1 160050Z 00000KT 11/M05 A3014 RMK A01 T01071049  RH  033%=      5-min Rain = 0
KSM1 160055Z 00000KT 11/M05 A3014 RMK A01 T01051048  RH  034%=      5-min Rain = 0
KSM1 160100Z 30001KT 10/M04 A3014 RMK A01 T01011040  RH  037%=      5-min Rain = 0
KSM1 160105Z 25001KT 10/M03 A3014 RMK A01 T00981031  RH  041%=      5-min Rain = 0
KSM1 160110Z 22002KT 10/M03 A3014 RMK A01 T00951028  RH  042%=      5-min Rain = 0
KSM1 160115Z 22003KT 09/M03 A3015 RMK A01 T00941029  RH  042%=      5-min Rain = 0
KSM1 160120Z 21002KT 09/M03 A3015 RMK A01 T00941034  RH  041%=      5-min Rain = 0
KSM1 160125Z 21002KT 10/M04 A3015 RMK A01 T00951041  RH  038%=      5-min Rain = 0
KSM1 160130Z 22003KT 10/M04 A3015 RMK A01 T00981040  RH  038%=      5-min Rain = 0
KSM1 160135Z 22004KT 10/M04 A3015 RMK A01 T00951036  RH  040%=      5-min Rain = 0
KSM1 160140Z 21004KT 09/M03 A3015 RMK A01 T00901033  RH  042%=      5-min Rain = 0
KSM1 160145Z 21003KT 09/M03 A3015 RMK A01 T00871031  RH  044%=      5-min Rain = 0
KSM1 160150Z 21003KT 09/M03 A3015 RMK A01 T00881034  RH  043%=      5-min Rain = 0
KSM1 160155Z 21003KT 09/M04 A3015 RMK A01 T00881035  RH  042%=      5-min Rain = 0
KSM1 160200Z 21004KT 09/M04 A3015 RMK A01 T00901035  RH  041%=      5-min Rain = 0
KSM1 160205Z 22005KT 09/M03 A3015 RMK A01 T00881033  RH  043%=      5-min Rain = 0
KSM1 160210Z 21005KT 08/M03 A3015 RMK A01 T00841034  RH  044%=      5-min Rain = 0
KSM1 160215Z 21005KT 08/M04 A3015 RMK A01 T00841036  RH  043%=      5-min Rain = 0
KSM1 160220Z 21004KT 08/M04 A3015 RMK A01 T00831036  RH  043%=      5-min Rain = 0
KSM1 160225Z 21004KT 08/M04 A3015 RMK A01 T00821037  RH  043%=      5-min Rain = 0
KSM1 160230Z 21004KT 08/M04 A3015 RMK A01 T00801036  RH  044%=      5-min Rain = 0
KSM1 160235Z 21004KT 08/M04 A3015 RMK A01 T00781036  RH  045%=      5-min Rain = 0
KSM1 160240Z 21005KT 08/M04 A3015 RMK A01 T00771036  RH  045%=      5-min Rain = 0
KSM1 160245Z 21005KT 08/M04 A3015 RMK A01 T00761036  RH  046%=      5-min Rain = 0
KSM1 160250Z 22005KT 08/M03 A3015 RMK A01 T00751034  RH  046%=      5-min Rain = 0
KSM1 160255Z 17005KT 07/M03 A3015 RMK A01 T00721031  RH  048%=      5-min Rain = 0
KSM1 160300Z 15006KT 06/M02 A3015 RMK A01 T00581024  RH  056%=      5-min Rain = 0
KSM1 160305Z 16006KT 05/M02 A3015 RMK A01 T00471021  RH  062%=      5-min Rain = 0
KSM1 160310Z 17006KT 04/M02 A3016 RMK A01 T00401020  RH  065%=      5-min Rain = 0
KSM1 160315Z 18006KT 04/M02 A3015 RMK A01 T00351018  RH  069%=      5-min Rain = 0
KSM1 160320Z 19006KT 04/M02 A3015 RMK A01 T00391017  RH  068%=      5-min Rain = 0
KSM1 160325Z 19006KT 05/M02 A3015 RMK A01 T00471020  RH  063%=      5-min Rain = 0
KSM1 160330Z 19006KT 05/M02 A3015 RMK A01 T00531022  RH  059%=      5-min Rain = 0
KSM1 160335Z 19006KT 06/M02 A3016 RMK A01 T00551024  RH  057%=      5-min Rain = 0
KSM1 160340Z 19006KT 05/M03 A3016 RMK A01 T00521025  RH  058%=      5-min Rain = 0
KSM1 160345Z 19006KT 05/M02 A3015 RMK A01 T00501024  RH  059%=      5-min Rain = 0
KSM1 160350Z 19006KT 05/M03 A3015 RMK A01 T00511025  RH  059%=      5-min Rain = 0
KSM1 160355Z 19007KT 05/M02 A3015 RMK A01 T00491024  RH  059%=      5-min Rain = 0
KSM1 160400Z 19007KT 05/M02 A3015 RMK A01 T00501024  RH  060%=      5-min Rain = 0
KSM1 160405Z 20006KT 05/M02 A3015 RMK A01 T00521024  RH  058%=      5-min Rain = 0
KSM1 160410Z 20007KT 05/M03 A3015 RMK A01 T00541025  RH  057%=      5-min Rain = 0
KSM1 160415Z 20007KT 06/M03 A3015 RMK A01 T00581026  RH  055%=      5-min Rain = 0
KSM1 160420Z 21007KT 06/M03 A3016 RMK A01 T00631028  RH  053%=      5-min Rain = 0
KSM1 160425Z 21007KT 06/M03 A3016 RMK A01 T00641029  RH  052%=      5-min Rain = 0
KSM1 160430Z 23006KT 07/M03 A3016 RMK A01 T00651030  RH  051%=      5-min Rain = 0
KSM1 160435Z 24005KT 06/M03 A3016 RMK A01 T00611027  RH  054%=      5-min Rain = 0
KSM1 160440Z 24005KT 05/M02 A3016 RMK A01 T00521024  RH  058%=      5-min Rain = 0
KSM1 160445Z 25005KT 05/M02 A3016 RMK A01 T00461023  RH  061%=      5-min Rain = 0
KSM1 160450Z 25005KT 04/M02 A3015 RMK A01 T00431023  RH  063%=      5-min Rain = 0
KSM1 160455Z 25005KT 04/M02 A3015 RMK A01 T00411022  RH  064%=      5-min Rain = 0
KSM1 160500Z 24005KT 04/M02 A3015 RMK A01 T00401022  RH  064%=      5-min Rain = 0
KSM1 160505Z 24005KT 04/M02 A3016 RMK A01 T00401022  RH  065%=      5-min Rain = 0
KSM1 160510Z 24006KT 04/M02 A3016 RMK A01 T00391023  RH  065%=      5-min Rain = 0
KSM1 160515Z 24006KT 04/M03 A3015 RMK A01 T00411026  RH  062%=      5-min Rain = 0
KSM1 160520Z 24005KT 04/M03 A3015 RMK A01 T00421027  RH  062%=      5-min Rain = 0
KSM1 160525Z 24005KT 04/M03 A3015 RMK A01 T00421027  RH  061%=      5-min Rain = 0
KSM1 160530Z 24006KT 04/M03 A3015 RMK A01 T00431027  RH  061%=      5-min Rain = 0
KSM1 160535Z 24006KT 04/M03 A3015 RMK A01 T00421026  RH  062%=      5-min Rain = 0
KSM1 160540Z 23005KT 04/M03 A3015 RMK A01 T00421028  RH  061%=      5-min Rain = 0
KSM1 160545Z 23005KT 04/M03 A3015 RMK A01 T00421028  RH  061%=      5-min Rain = 0
KSM1 160550Z 23006KT 04/M03 A3015 RMK A01 T00411027  RH  062%=      5-min Rain = 0
KSM1 160555Z 23005KT 04/M03 A3015 RMK A01 T00401026  RH  062%=      5-min Rain = 0

Page generated in 0.0444 seconds.